createdAt,value
2018-09-08T00:03:00.636Z,12.1
2018-09-08T00:08:03.037Z,12.1
2018-09-08T00:13:05.345Z,12.1
2018-09-08T00:18:07.574Z,12
2018-09-08T00:23:09.849Z,12
2018-09-08T00:28:12.090Z,12
2018-09-08T00:33:14.356Z,11.9
2018-09-08T00:38:16.727Z,11.9
2018-09-08T00:43:19.068Z,11.9
2018-09-08T00:48:21.401Z,11.8
2018-09-08T00:53:23.672Z,11.8
2018-09-08T00:58:25.926Z,11.8
2018-09-08T01:03:28.263Z,11.7
2018-09-08T01:08:30.568Z,11.7
2018-09-08T01:13:32.850Z,11.7
2018-09-08T01:18:35.055Z,11.7
2018-09-08T01:23:37.400Z,11.6
2018-09-08T01:28:39.789Z,11.6
2018-09-08T01:33:42.063Z,11.5
2018-09-08T01:38:48.383Z,11.5
2018-09-08T01:43:46.690Z,11.5
2018-09-08T01:48:48.831Z,11.4
2018-09-08T01:53:51.207Z,11.4
2018-09-08T01:58:53.545Z,11.4
2018-09-08T02:03:55.723Z,11.4
2018-09-08T02:08:58.063Z,11.4
2018-09-08T02:14:00.397Z,11.3
2018-09-08T02:19:02.597Z,11.3
2018-09-08T02:24:04.857Z,11.3
2018-09-08T02:29:07.186Z,11.2
2018-09-08T02:34:09.474Z,11.2
2018-09-08T02:39:11.820Z,11.1
2018-09-08T02:44:14.069Z,11.1
2018-09-08T02:49:16.496Z,11
2018-09-08T02:54:18.747Z,11
2018-09-08T02:59:20.978Z,10.9
2018-09-08T03:04:23.186Z,10.9
2018-09-08T03:09:25.473Z,10.8
2018-09-08T03:14:27.853Z,10.8
2018-09-08T03:19:30.185Z,10.7
2018-09-08T03:24:33.841Z,10.6
2018-09-08T03:29:34.781Z,10.6
2018-09-08T03:34:37.035Z,10.6
2018-09-08T03:39:39.363Z,10.6
2018-09-08T03:44:41.587Z,10.6
2018-09-08T03:49:43.880Z,10.5
2018-09-08T03:54:46.154Z,10.5
2018-09-08T03:59:48.587Z,10.5
2018-09-08T04:04:51.895Z,10.5
2018-09-08T04:09:53.063Z,10.4
2018-09-08T04:14:55.470Z,10.4
2018-09-08T04:19:57.731Z,10.4
2018-09-08T04:25:00.965Z,10.3
2018-09-08T04:30:02.218Z,10.3
2018-09-08T04:35:04.565Z,10.3
2018-09-08T04:40:06.885Z,10.3
2018-09-08T04:45:09.196Z,10.2
2018-09-08T04:50:11.445Z,10.2
2018-09-08T04:55:14.852Z,10.2
2018-09-08T05:00:15.931Z,10.1
2018-09-08T05:05:18.344Z,10.1
2018-09-08T05:10:20.594Z,10.1
2018-09-08T05:15:22.876Z,10.1
2018-09-08T05:20:25.205Z,10.2
2018-09-08T05:25:27.534Z,10.2
2018-09-08T05:30:29.825Z,10.3
2018-09-08T05:35:32.083Z,10.5
2018-09-08T05:40:34.477Z,10.7
2018-09-08T05:45:36.675Z,10.7
2018-09-08T05:50:38.893Z,10.7
2018-09-08T05:55:41.390Z,10.8
2018-09-08T06:00:43.564Z,10.9
2018-09-08T06:05:45.882Z,10.9
2018-09-08T06:10:48.111Z,11
2018-09-08T06:15:50.514Z,11.1
2018-09-08T06:20:52.826Z,11.1
2018-09-08T06:25:55.092Z,11.2
2018-09-08T06:30:57.305Z,11.3
2018-09-08T06:35:59.598Z,11.4
2018-09-08T06:41:01.927Z,11.7
2018-09-08T06:46:04.199Z,11.9
2018-09-08T06:51:06.523Z,12
2018-09-08T06:56:08.869Z,12
2018-09-08T07:01:11.149Z,12.1
2018-09-08T07:06:13.630Z,12.4
2018-09-08T07:11:15.657Z,12.7
2018-09-08T07:16:17.976Z,13.1
2018-09-08T07:21:20.371Z,13.5
2018-09-08T07:26:22.619Z,13.8
2018-09-08T07:31:24.918Z,14
2018-09-08T07:36:27.138Z,14.1
2018-09-08T07:41:29.470Z,14.1
2018-09-08T07:46:31.769Z,14.5
2018-09-08T07:51:34.062Z,14.7
2018-09-08T07:56:36.356Z,14.9
2018-09-08T08:01:38.652Z,15
2018-09-08T08:06:40.964Z,15.4
2018-09-08T08:11:43.176Z,15.7
2018-09-08T08:16:45.459Z,16.4
2018-09-08T08:21:47.831Z,16.4
2018-09-08T08:26:50.440Z,16.6
2018-09-08T08:31:52.650Z,16.700001
2018-09-08T08:36:54.704Z,16.9
2018-09-08T08:41:57.025Z,17
2018-09-08T08:46:59.279Z,17.200001
2018-09-08T08:52:01.532Z,17.5
2018-09-08T08:57:03.936Z,17.9
2018-09-08T09:02:06.182Z,18.1
2018-09-08T09:07:08.392Z,18.6
2018-09-08T09:12:10.767Z,19.1
2018-09-08T09:17:13.013Z,19.1
2018-09-08T09:22:15.325Z,19.299999
2018-09-08T09:27:17.630Z,19.4
2018-09-08T09:32:19.900Z,19.5
2018-09-08T09:37:22.300Z,19.9
2018-09-08T09:42:24.550Z,20.299999
2018-09-08T09:47:26.906Z,20.4
2018-09-08T09:52:29.111Z,20.6
2018-09-08T09:57:31.495Z,20.799999
2018-09-08T10:02:33.699Z,20.700001
2018-09-08T10:07:36.121Z,21
2018-09-08T10:12:38.287Z,20.9
2018-09-08T10:17:40.614Z,20.299999
2018-09-08T10:22:42.863Z,20.1
2018-09-08T10:27:45.126Z,20.9
2018-09-08T10:32:47.507Z,21.700001
2018-09-08T10:37:49.744Z,21.1
2018-09-08T10:42:52.026Z,20.200001
2018-09-08T10:47:54.329Z,19.5
2018-09-08T10:52:56.543Z,19.299999
2018-09-08T10:57:58.839Z,19.4
2018-09-08T11:03:01.160Z,20.299999
2018-09-08T11:08:03.475Z,20.9
2018-09-08T11:13:05.811Z,20.799999
2018-09-08T11:18:08.110Z,21.200001
2018-09-08T11:23:10.343Z,21.4
2018-09-08T11:28:12.637Z,21.4
2018-09-08T11:33:14.963Z,21.6
2018-09-08T11:38:17.417Z,21.799999
2018-09-08T11:43:19.577Z,21.799999
2018-09-08T11:48:21.806Z,21.4
2018-09-08T11:58:26.429Z,20.799999
2018-09-08T12:03:28.720Z,21.6
2018-09-08T12:08:31.195Z,22.4
2018-09-08T12:13:33.373Z,23.1
2018-09-08T12:18:35.722Z,22.799999
2018-09-08T12:23:37.969Z,21.9
2018-09-08T12:28:40.217Z,21.200001
2018-09-08T12:33:42.443Z,21.799999
2018-09-08T12:38:44.843Z,22.4
2018-09-08T12:43:47.109Z,22.4
2018-09-08T12:48:49.372Z,21.799999
2018-09-08T12:53:51.690Z,21
2018-09-08T12:58:54.030Z,20.6
2018-09-08T13:03:56.310Z,21
2018-09-08T13:08:58.543Z,20.9
2018-09-08T13:14:00.916Z,20.799999
2018-09-08T13:19:03.067Z,20.5
2018-09-08T13:24:05.535Z,20.6
2018-09-08T13:29:07.791Z,20.700001
2018-09-08T13:34:10.095Z,21.1
2018-09-08T13:39:12.356Z,21.799999
2018-09-08T13:44:14.621Z,22
2018-09-08T13:49:16.944Z,21.9
2018-09-08T13:54:19.256Z,21.4
2018-09-08T13:59:21.497Z,21.1
2018-09-08T14:04:23.759Z,21.1
2018-09-08T14:09:26.106Z,21.1
2018-09-08T14:14:28.464Z,21.1
2018-09-08T14:19:30.820Z,20.700001
2018-09-08T14:24:33.017Z,20.5
2018-09-08T14:29:35.323Z,20.6
2018-09-08T14:34:37.612Z,20.6
2018-09-08T14:39:39.880Z,20.4
2018-09-08T14:44:42.108Z,20.200001
2018-09-08T14:49:44.514Z,20.1
2018-09-08T14:54:46.758Z,19.9
2018-09-08T14:59:49.058Z,19.799999
2018-09-08T15:04:51.395Z,19.700001
2018-09-08T15:09:53.652Z,19.5
2018-09-08T15:14:55.893Z,19.4
2018-09-08T15:19:58.204Z,19.200001
2018-09-08T15:25:00.479Z,19.200001
2018-09-08T15:30:02.846Z,19.1
2018-09-08T15:35:05.132Z,19.1
2018-09-08T15:40:07.459Z,19.1
2018-09-08T15:45:09.653Z,19
2018-09-08T15:50:12.053Z,18.9
2018-09-08T15:55:16.704Z,18.9
2018-09-08T16:00:16.572Z,18.799999
2018-09-08T16:05:18.892Z,18.700001
2018-09-08T16:10:21.084Z,18.700001
2018-09-08T16:15:24.618Z,18.700001
2018-09-08T16:20:25.727Z,18.6
2018-09-08T16:25:28.022Z,18.5
2018-09-08T16:30:30.394Z,18.4
2018-09-08T16:35:32.740Z,18.4
2018-09-08T16:40:34.954Z,18.299999
2018-09-08T16:45:37.321Z,18.299999
2018-09-08T16:50:39.654Z,18.200001
2018-09-08T16:55:41.732Z,18.200001
2018-09-08T17:00:44.164Z,18.1
2018-09-08T17:05:46.477Z,18
2018-09-08T17:10:48.809Z,17.9
2018-09-08T17:15:51.011Z,17.799999
2018-09-08T17:20:53.286Z,17.6
2018-09-08T17:25:55.594Z,17.5
2018-09-08T17:30:57.912Z,17.4
2018-09-08T17:36:00.152Z,17.299999
2018-09-08T17:41:03.587Z,17.200001
2018-09-08T17:46:04.808Z,17
2018-09-08T17:51:07.079Z,16.9
2018-09-08T17:56:09.304Z,16.9
2018-09-08T18:01:11.723Z,16.700001
2018-09-08T18:06:13.997Z,16.6
2018-09-08T18:11:16.234Z,16.5
2018-09-08T18:16:18.498Z,16.299999
2018-09-08T18:21:21.099Z,16.1
2018-09-08T18:26:23.013Z,16
2018-09-08T18:31:25.449Z,15.8
2018-09-08T18:36:27.678Z,15.7
2018-09-08T18:41:29.990Z,15.6
2018-09-08T18:46:32.322Z,15.5
2018-09-08T18:51:34.596Z,15.5
2018-09-08T18:56:36.903Z,15.4
2018-09-08T19:01:39.182Z,15.3
2018-09-08T19:06:41.385Z,15.3
2018-09-08T19:11:43.797Z,15.2
2018-09-08T19:16:46.067Z,15.3
2018-09-08T19:21:48.282Z,15.3
2018-09-08T19:26:50.621Z,15.3
2018-09-08T19:31:52.922Z,15.3
2018-09-08T19:36:55.267Z,15.3
2018-09-08T19:46:59.744Z,15.3
2018-09-08T19:52:02.041Z,15.3
2018-09-08T19:57:04.483Z,15.4
2018-09-08T20:02:06.776Z,15.3
2018-09-08T20:07:08.970Z,15.3
2018-09-08T20:12:11.298Z,15.3
2018-09-08T20:17:13.577Z,15.2
2018-09-08T20:22:15.923Z,15.2
2018-09-08T20:27:18.145Z,15.1
2018-09-08T20:32:20.546Z,15.1
2018-09-08T20:37:22.760Z,15.1
2018-09-08T20:42:25.024Z,15.2
2018-09-08T20:47:27.340Z,15.1
2018-09-08T20:52:29.684Z,15.1
2018-09-08T20:57:35.959Z,15.1
2018-09-08T21:02:34.155Z,15.1
2018-09-08T21:07:36.621Z,15
2018-09-08T21:12:38.810Z,14.9
2018-09-08T21:17:41.154Z,14.9
2018-09-08T21:22:43.404Z,14.9
2018-09-08T21:27:45.782Z,14.9
2018-09-08T21:32:47.943Z,15
2018-09-08T21:37:50.386Z,14.9
2018-09-08T21:42:52.632Z,15
2018-09-08T21:47:54.834Z,14.9
2018-09-08T21:52:57.132Z,14.9
2018-09-08T21:57:59.463Z,14.7
2018-09-08T22:03:01.757Z,14.6
2018-09-08T22:08:03.998Z,14.6
2018-09-08T22:13:06.354Z,14.6
2018-09-08T22:18:08.617Z,14.5
2018-09-08T22:23:12.417Z,14.5
2018-09-08T22:28:13.304Z,14.4
2018-09-08T22:33:15.531Z,14.3
2018-09-08T22:38:17.803Z,14.3
2018-09-08T22:43:20.135Z,14.2
2018-09-08T22:48:22.430Z,14.1
2018-09-08T22:53:24.758Z,14.1
2018-09-08T22:58:27.027Z,14.1
2018-09-08T23:03:29.323Z,14.1
2018-09-08T23:08:31.620Z,14.1
2018-09-08T23:13:33.909Z,14.2
2018-09-08T23:18:36.277Z,14.2
2018-09-08T23:23:38.441Z,14.1
2018-09-08T23:28:40.698Z,14.2
2018-09-08T23:33:43.108Z,14.3
2018-09-08T23:38:45.371Z,14.4
2018-09-08T23:48:49.926Z,14.6
2018-09-08T23:53:52.294Z,14.7
2018-09-08T23:58:56.796Z,14.7
